createdAt,value
2018-06-25T00:02:07.197Z,13.90
2018-06-25T00:04:40.233Z,13.90
2018-06-25T00:07:13.284Z,13.90
2018-06-25T00:09:46.290Z,13.80
2018-06-25T00:12:19.317Z,13.70
2018-06-25T00:14:52.360Z,13.70
2018-06-25T00:17:25.360Z,13.60
2018-06-25T00:19:58.398Z,13.60
2018-06-25T00:22:31.414Z,13.50
2018-06-25T00:25:04.510Z,13.50
2018-06-25T00:27:37.583Z,13.50
2018-06-25T00:30:10.933Z,13.50
2018-06-25T00:32:43.946Z,13.50
2018-06-25T00:35:16.970Z,13.60
2018-06-25T00:37:49.958Z,13.60
2018-06-25T00:40:23.001Z,13.60
2018-06-25T00:42:58.013Z,13.60
2018-06-25T00:45:31.014Z,13.70
2018-06-25T00:48:04.026Z,13.60
2018-06-25T00:50:37.091Z,13.60
2018-06-25T00:53:10.078Z,13.60
2018-06-25T00:55:43.090Z,13.60
2018-06-25T00:58:16.109Z,13.50
2018-06-25T01:00:49.148Z,13.50
2018-06-25T01:03:22.162Z,13.50
2018-06-25T01:05:55.263Z,13.50
2018-06-25T01:08:28.215Z,13.50
2018-06-25T01:11:01.218Z,13.50
2018-06-25T01:13:39.581Z,13.40
2018-06-25T01:16:12.656Z,13.30
2018-06-25T01:18:45.638Z,13.20
2018-06-25T01:21:18.636Z,13.10
2018-06-25T01:23:51.687Z,13.10
2018-06-25T01:26:24.837Z,13.10
2018-06-25T01:28:57.890Z,13.00
2018-06-25T01:31:30.930Z,13.00
2018-06-25T01:34:03.994Z,12.90
2018-06-25T01:36:37.033Z,12.80
2018-06-25T01:39:11.157Z,12.80
2018-06-25T01:41:44.188Z,12.80
2018-06-25T01:44:17.201Z,12.80
2018-06-25T01:46:50.240Z,12.80
2018-06-25T01:49:23.282Z,12.90
2018-06-25T01:51:56.352Z,12.90
2018-06-25T01:54:29.330Z,13.00
2018-06-25T01:57:02.381Z,13.10
2018-06-25T01:59:35.382Z,13.10
2018-06-25T02:02:08.407Z,13.20
2018-06-25T02:04:41.478Z,13.10
2018-06-25T02:07:14.498Z,13.20
2018-06-25T02:09:47.505Z,13.20
2018-06-25T02:12:20.543Z,13.20
2018-06-25T02:14:53.559Z,13.20
2018-06-25T02:17:26.767Z,13.20
2018-06-25T02:19:59.850Z,13.20
2018-06-25T02:22:33.110Z,13.30
2018-06-25T02:25:07.037Z,13.30
2018-06-25T02:27:40.074Z,13.30
2018-06-25T02:30:13.149Z,13.30
2018-06-25T02:32:46.178Z,13.40
2018-06-25T02:35:19.198Z,13.30
2018-06-25T02:37:52.232Z,13.30
2018-06-25T02:40:25.267Z,13.20
2018-06-25T02:42:58.306Z,13.10
2018-06-25T02:45:31.333Z,13.00
2018-06-25T02:48:04.891Z,13.10
2018-06-25T02:50:37.893Z,13.10
2018-06-25T02:53:10.950Z,13.10
2018-06-25T02:55:43.967Z,13.10
2018-06-25T02:58:16.997Z,13.20
2018-06-25T03:00:50.032Z,13.30
2018-06-25T03:03:23.062Z,13.30
2018-06-25T03:05:56.110Z,13.40
2018-06-25T03:08:29.158Z,13.40
2018-06-25T03:11:02.178Z,13.50
2018-06-25T03:13:35.274Z,13.40
2018-06-25T03:16:08.262Z,13.40
2018-06-25T03:18:41.313Z,13.40
2018-06-25T03:21:15.386Z,13.40
2018-06-25T03:23:48.498Z,13.40
2018-06-25T03:26:21.594Z,13.40
2018-06-25T03:28:54.621Z,13.40
2018-06-25T03:31:27.631Z,13.30
2018-06-25T03:34:00.741Z,13.30
2018-06-25T03:36:33.769Z,13.20
2018-06-25T03:39:08.314Z,13.20
2018-06-25T03:41:41.311Z,13.20
2018-06-25T03:44:14.373Z,13.10
2018-06-25T03:46:47.400Z,13.10
2018-06-25T03:49:20.448Z,13.10
2018-06-25T03:51:53.472Z,13.10
2018-06-25T03:54:26.511Z,13.00
2018-06-25T03:56:59.530Z,13.00
2018-06-25T03:59:32.578Z,13.10
2018-06-25T04:02:05.600Z,13.10
2018-06-25T04:04:38.655Z,13.10
2018-06-25T04:07:11.669Z,13.10
2018-06-25T04:12:17.498Z,13.20
2018-06-25T04:14:50.511Z,13.20
2018-06-25T04:17:23.535Z,13.30
2018-06-25T04:19:56.596Z,13.30
2018-06-25T04:22:29.621Z,13.40
2018-06-25T04:25:02.618Z,13.40
2018-06-25T04:27:35.667Z,13.50
2018-06-25T04:30:08.695Z,13.50
2018-06-25T04:32:41.751Z,13.50
2018-06-25T04:35:14.800Z,13.50
2018-06-25T04:37:47.865Z,13.60
2018-06-25T04:40:20.977Z,13.60
2018-06-25T04:42:54.100Z,13.60
2018-06-25T04:45:27.167Z,13.60
2018-06-25T04:48:00.170Z,13.60
2018-06-25T04:50:33.196Z,13.60
2018-06-25T04:53:06.210Z,13.60
2018-06-25T04:55:39.261Z,13.60
2018-06-25T04:58:12.286Z,13.60
2018-06-25T05:00:45.321Z,13.60
2018-06-25T05:03:18.356Z,13.60
2018-06-25T05:05:51.446Z,13.60
2018-06-25T05:08:24.499Z,13.60
2018-06-25T05:10:57.554Z,13.60
2018-06-25T05:13:30.543Z,13.70
2018-06-25T05:16:03.616Z,13.70
2018-06-25T05:18:37.143Z,13.70
2018-06-25T05:21:10.170Z,13.80
2018-06-25T05:23:43.229Z,13.80
2018-06-25T05:26:16.242Z,13.90
2018-06-25T05:28:49.261Z,13.90
2018-06-25T05:31:22.393Z,14.00
2018-06-25T05:33:55.464Z,14.00
2018-06-25T05:36:28.515Z,14.00
2018-06-25T05:39:01.554Z,14.00
2018-06-25T05:41:34.542Z,14.10
2018-06-25T05:44:07.634Z,14.10
2018-06-25T05:46:40.689Z,14.10
2018-06-25T05:49:13.702Z,14.10
2018-06-25T05:51:46.747Z,14.20
2018-06-25T05:56:52.610Z,14.20
2018-06-25T05:59:25.658Z,14.20
2018-06-25T06:01:58.706Z,14.30
2018-06-25T06:04:31.694Z,14.20
2018-06-25T06:07:05.162Z,14.20
2018-06-25T06:09:38.266Z,14.30
2018-06-25T06:12:11.302Z,14.20
2018-06-25T06:14:44.360Z,14.20
2018-06-25T06:17:17.396Z,14.30
2018-06-25T06:22:23.281Z,14.30
2018-06-25T06:24:56.319Z,14.30
2018-06-25T06:27:29.322Z,14.30
2018-06-25T06:30:02.504Z,14.30
2018-06-25T06:32:35.541Z,14.30
2018-06-25T06:35:08.574Z,14.30
2018-06-25T06:37:41.642Z,14.30
2018-06-25T06:40:14.699Z,14.30
2018-06-25T06:42:47.702Z,14.30
2018-06-25T06:45:20.767Z,14.30
2018-06-25T06:47:53.821Z,14.40
2018-06-25T06:50:26.885Z,14.50
2018-06-25T06:53:00.015Z,14.50
2018-06-25T06:55:33.034Z,14.50
2018-06-25T06:58:06.148Z,14.60
2018-06-25T07:00:39.218Z,14.60
2018-06-25T07:03:12.268Z,14.70
2018-06-25T07:05:45.311Z,14.70
2018-06-25T07:08:18.359Z,14.80
2018-06-25T07:10:51.394Z,14.80
2018-06-25T07:13:24.470Z,14.80
2018-06-25T07:15:57.604Z,14.90
2018-06-25T07:18:30.674Z,15.00
2018-06-25T07:21:03.692Z,15.10
2018-06-25T07:23:36.755Z,15.10
2018-06-25T07:26:09.807Z,15.20
2018-06-25T07:28:42.870Z,15.30
2018-06-25T07:31:15.870Z,15.40
2018-06-25T07:33:48.890Z,15.40
2018-06-25T07:36:21.949Z,15.40
2018-06-25T07:38:55.040Z,15.50
2018-06-25T07:41:28.043Z,15.60
2018-06-25T07:44:01.075Z,15.60
2018-06-25T07:46:34.074Z,15.60
2018-06-25T07:49:07.149Z,15.60
2018-06-25T07:51:40.158Z,15.50
2018-06-25T07:54:13.251Z,15.60
2018-06-25T07:56:46.353Z,15.60
2018-06-25T07:59:19.397Z,15.50
2018-06-25T08:01:52.390Z,15.60
2018-06-25T08:04:25.418Z,15.60
2018-06-25T08:06:58.420Z,15.70
2018-06-25T08:12:04.355Z,15.70
2018-06-25T08:14:37.402Z,15.80
2018-06-25T08:17:10.463Z,15.90
2018-06-25T08:19:43.462Z,16.00
2018-06-25T08:22:16.466Z,16.10
2018-06-25T08:24:49.516Z,16.10
2018-06-25T08:27:22.578Z,16.20
2018-06-25T08:29:55.724Z,16.20
2018-06-25T08:32:28.693Z,16.30
2018-06-25T08:35:01.839Z,16.40
2018-06-25T08:37:34.938Z,16.40
2018-06-25T08:40:08.095Z,16.50
2018-06-25T08:42:41.162Z,16.60
2018-06-25T08:45:14.592Z,16.60
2018-06-25T08:47:47.607Z,16.50
2018-06-25T08:50:20.626Z,16.50
2018-06-25T08:52:53.707Z,16.60
2018-06-25T08:55:26.750Z,16.60
2018-06-25T08:57:59.915Z,16.60
2018-06-25T09:00:32.973Z,16.70
2018-06-25T09:03:06.549Z,16.80
2018-06-25T09:05:39.602Z,16.90
2018-06-25T09:08:12.783Z,16.90
2018-06-25T09:10:45.830Z,17.10
2018-06-25T09:13:18.841Z,17.10
2018-06-25T09:15:51.894Z,17.10
2018-06-25T09:18:24.909Z,17.20
2018-06-25T09:20:57.953Z,17.30
2018-06-25T09:23:31.015Z,17.40
2018-06-25T09:26:04.131Z,17.60
2018-06-25T09:28:37.145Z,17.70
2018-06-25T09:31:10.159Z,17.80
2018-06-25T09:33:43.193Z,18.10
2018-06-25T09:36:16.382Z,18.20
2018-06-25T09:38:49.445Z,18.20
2018-06-25T09:41:22.590Z,18.20
2018-06-25T09:43:55.498Z,18.20
2018-06-25T09:46:28.593Z,18.20
2018-06-25T09:49:01.602Z,18.30
2018-06-25T09:51:34.672Z,18.20
2018-06-25T09:54:07.697Z,18.20
2018-06-25T09:56:40.716Z,18.10
2018-06-25T09:59:13.754Z,18.10
2018-06-25T10:01:46.758Z,18.10
2018-06-25T10:04:19.803Z,18.00
2018-06-25T10:06:52.830Z,18.00
2018-06-25T10:09:25.834Z,18.00
2018-06-25T10:11:58.913Z,18.10
2018-06-25T10:14:31.926Z,18.30
2018-06-25T10:17:05.886Z,18.50
2018-06-25T10:19:39.014Z,18.80
2018-06-25T10:22:12.095Z,18.90
2018-06-25T10:24:45.090Z,19.00
2018-06-25T10:27:18.120Z,19.10
2018-06-25T10:29:51.105Z,19.20
2018-06-25T10:32:24.201Z,19.30
2018-06-25T10:34:57.332Z,19.20
2018-06-25T10:37:30.486Z,19.10
2018-06-25T10:40:03.502Z,19.10
2018-06-25T10:45:09.365Z,19.10
2018-06-25T10:47:42.431Z,19.20
2018-06-25T10:50:15.718Z,19.20
2018-06-25T10:52:48.967Z,19.40
2018-06-25T10:55:21.998Z,19.70
2018-06-25T10:57:55.059Z,19.80
2018-06-25T11:00:28.239Z,19.80
2018-06-25T11:03:01.449Z,19.90
2018-06-25T11:05:34.488Z,20.00
2018-06-25T11:08:07.584Z,20.00
2018-06-25T11:13:13.481Z,20.40
2018-06-25T11:15:46.596Z,20.50
2018-06-25T11:18:19.617Z,20.70
2018-06-25T11:20:52.688Z,21.00
2018-06-25T11:23:25.766Z,21.20
2018-06-25T11:25:58.771Z,21.40
2018-06-25T11:28:31.847Z,21.60
2018-06-25T11:31:04.910Z,21.60
2018-06-25T11:33:37.991Z,21.80
2018-06-25T11:36:11.030Z,21.90
2018-06-25T11:38:44.128Z,22.00
2018-06-25T11:41:17.175Z,22.00
2018-06-25T11:43:50.248Z,22.20
2018-06-25T11:46:23.321Z,22.30
2018-06-25T11:48:56.389Z,22.40
2018-06-25T11:51:29.491Z,22.40
2018-06-25T11:54:02.576Z,22.60
2018-06-25T11:56:36.659Z,22.70
2018-06-25T11:59:09.711Z,22.80
2018-06-25T12:01:42.794Z,22.90
2018-06-25T12:04:15.797Z,23.00
2018-06-25T12:06:48.836Z,23.20
2018-06-25T12:09:21.986Z,23.20
2018-06-25T12:11:55.030Z,23.30
2018-06-25T12:14:28.255Z,23.40
2018-06-25T12:17:01.283Z,23.30
2018-06-25T12:19:34.335Z,23.30
2018-06-25T12:22:07.434Z,23.10
2018-06-25T12:24:40.465Z,22.90
2018-06-25T12:29:46.413Z,22.70
2018-06-25T12:32:19.434Z,22.60
2018-06-25T12:34:52.462Z,22.70
2018-06-25T12:37:25.458Z,22.70
2018-06-25T12:39:58.499Z,22.50
2018-06-25T12:42:31.527Z,22.30
2018-06-25T12:45:04.703Z,22.30
2018-06-25T12:47:37.742Z,22.40
2018-06-25T12:50:10.934Z,22.40
2018-06-25T12:52:43.994Z,22.40
2018-06-25T12:55:17.063Z,22.20
2018-06-25T12:57:50.086Z,22.20
2018-06-25T13:00:23.165Z,22.30
2018-06-25T13:02:56.210Z,22.50
2018-06-25T13:05:29.256Z,22.50
2018-06-25T13:08:02.294Z,22.60
2018-06-25T13:10:35.365Z,22.50
2018-06-25T13:13:08.390Z,22.60
2018-06-25T13:15:41.464Z,22.50
2018-06-25T13:18:14.546Z,22.30
2018-06-25T13:20:47.522Z,22.20
2018-06-25T13:23:20.549Z,22.30
2018-06-25T13:25:53.715Z,22.30
2018-06-25T13:28:26.712Z,22.40
2018-06-25T13:30:59.780Z,22.50
2018-06-25T13:33:32.786Z,22.50
2018-06-25T13:36:07.038Z,22.60
2018-06-25T13:38:40.124Z,22.60
2018-06-25T13:41:13.221Z,22.60
2018-06-25T13:43:46.255Z,22.70
2018-06-25T13:46:19.287Z,22.70
2018-06-25T13:48:52.375Z,22.70
2018-06-25T13:51:25.442Z,22.70
2018-06-25T13:53:58.591Z,22.70
2018-06-25T13:56:31.615Z,22.90
2018-06-25T14:01:37.656Z,23.00
2018-06-25T14:04:10.792Z,22.90
2018-06-25T14:06:43.836Z,22.80
2018-06-25T14:09:16.868Z,22.80
2018-06-25T14:11:49.981Z,22.80
2018-06-25T14:14:23.011Z,23.00
2018-06-25T14:16:56.325Z,23.00
2018-06-25T14:19:29.062Z,23.10
2018-06-25T14:22:02.170Z,23.10
2018-06-25T14:24:40.517Z,23.10
2018-06-25T14:27:13.534Z,23.00
2018-06-25T14:29:46.570Z,22.90
2018-06-25T14:32:25.017Z,22.80
2018-06-25T14:35:03.394Z,22.80
2018-06-25T14:37:36.413Z,22.80
2018-06-25T14:40:09.496Z,22.80
2018-06-25T14:42:42.471Z,22.90
2018-06-25T14:45:15.536Z,22.80
2018-06-25T14:47:48.569Z,22.70
2018-06-25T14:50:21.639Z,22.70
2018-06-25T14:52:54.775Z,22.70
2018-06-25T14:55:27.830Z,22.60
2018-06-25T14:58:00.962Z,22.60
2018-06-25T15:00:34.035Z,22.40
2018-06-25T15:03:07.055Z,22.20
2018-06-25T15:05:40.095Z,22.00
2018-06-25T15:08:15.271Z,21.90
2018-06-25T15:10:48.420Z,21.90
2018-06-25T15:13:21.563Z,21.80
2018-06-25T15:15:54.518Z,21.80
2018-06-25T15:21:00.423Z,21.70
2018-06-25T15:23:33.471Z,21.60
2018-06-25T15:26:06.555Z,21.60
2018-06-25T15:28:39.540Z,21.50
2018-06-25T15:31:12.555Z,21.50
2018-06-25T15:33:45.620Z,21.50
2018-06-25T15:36:18.701Z,21.50
2018-06-25T15:38:51.746Z,21.40
2018-06-25T15:41:24.768Z,21.40
2018-06-25T15:43:57.784Z,21.30
2018-06-25T15:46:30.840Z,21.30
2018-06-25T15:49:03.911Z,21.20
2018-06-25T15:51:36.944Z,21.20
2018-06-25T15:54:10.186Z,21.20
2018-06-25T15:56:43.214Z,21.10
2018-06-25T15:59:16.264Z,21.20
2018-06-25T16:01:49.285Z,21.10
2018-06-25T16:04:22.333Z,21.00
2018-06-25T16:06:55.447Z,20.90
2018-06-25T16:09:28.418Z,20.90
2018-06-25T16:12:01.442Z,21.00
2018-06-25T16:14:34.497Z,21.00
2018-06-25T16:17:07.547Z,20.90
2018-06-25T16:19:40.566Z,20.90
2018-06-25T16:22:13.593Z,20.90
2018-06-25T16:24:46.634Z,21.00
2018-06-25T16:27:19.631Z,21.00
2018-06-25T16:29:52.675Z,20.90
2018-06-25T16:32:25.723Z,21.00
2018-06-25T16:34:58.752Z,20.90
2018-06-25T16:37:31.790Z,20.90
2018-06-25T16:40:04.860Z,21.00
2018-06-25T16:45:10.717Z,21.00
2018-06-25T16:47:43.757Z,21.00
2018-06-25T16:50:16.790Z,20.90
2018-06-25T16:52:49.815Z,21.00
2018-06-25T16:55:22.834Z,20.90
2018-06-25T16:57:55.865Z,20.90
2018-06-25T17:00:28.888Z,20.80
2018-06-25T17:03:01.900Z,20.90
2018-06-25T17:05:34.981Z,20.80
2018-06-25T17:08:07.995Z,20.90
2018-06-25T17:10:41.089Z,20.80
2018-06-25T17:13:14.057Z,20.90
2018-06-25T17:15:47.130Z,20.90
2018-06-25T17:18:20.145Z,20.90
2018-06-25T17:20:53.158Z,20.80
2018-06-25T17:23:26.230Z,20.70
2018-06-25T17:25:59.290Z,20.70
2018-06-25T17:28:32.294Z,20.70
2018-06-25T17:31:05.354Z,20.70
2018-06-25T17:33:38.383Z,20.70
2018-06-25T17:36:11.557Z,20.70
2018-06-25T17:38:44.644Z,20.60
2018-06-25T17:41:17.694Z,20.60
2018-06-25T17:43:50.715Z,20.60
2018-06-25T17:46:23.756Z,20.50
2018-06-25T17:48:56.787Z,20.50
2018-06-25T17:51:29.826Z,20.50
2018-06-25T17:54:02.872Z,20.50
2018-06-25T17:56:35.950Z,20.60
2018-06-25T17:59:08.961Z,20.60
2018-06-25T18:01:42.102Z,20.60
2018-06-25T18:04:15.098Z,20.60
2018-06-25T18:06:48.775Z,20.70
2018-06-25T18:09:21.791Z,20.70
2018-06-25T18:11:54.836Z,20.70
2018-06-25T18:14:27.875Z,20.80
2018-06-25T18:17:01.624Z,20.80
2018-06-25T18:19:34.721Z,20.80
2018-06-25T18:22:07.794Z,20.80
2018-06-25T18:24:40.815Z,20.80
2018-06-25T18:27:13.938Z,20.70
2018-06-25T18:29:46.961Z,20.70
2018-06-25T18:32:20.013Z,20.60
2018-06-25T18:34:53.043Z,20.50
2018-06-25T18:37:26.175Z,20.40
2018-06-25T18:39:59.213Z,20.20
2018-06-25T18:42:32.298Z,20.10
2018-06-25T18:45:05.520Z,20.00
2018-06-25T18:47:38.591Z,20.00
2018-06-25T18:50:11.606Z,19.90
2018-06-25T18:52:44.646Z,19.90
2018-06-25T18:55:18.403Z,19.80
2018-06-25T18:57:52.221Z,19.80
2018-06-25T19:00:25.943Z,19.80
2018-06-25T19:02:59.742Z,19.80
2018-06-25T19:05:33.511Z,19.70
2018-06-25T19:08:07.465Z,19.70
2018-06-25T19:10:40.620Z,19.70
2018-06-25T19:13:13.685Z,19.70
2018-06-25T19:15:46.706Z,19.70
2018-06-25T19:18:19.741Z,19.70
2018-06-25T19:20:52.785Z,19.60
2018-06-25T19:23:25.865Z,19.60
2018-06-25T19:25:58.883Z,19.50
2018-06-25T19:28:31.958Z,19.60
2018-06-25T19:31:05.315Z,19.50
2018-06-25T19:33:40.513Z,19.50
2018-06-25T19:36:13.737Z,19.40
2018-06-25T19:38:47.890Z,19.40
2018-06-25T19:41:21.083Z,19.30
2018-06-25T19:43:56.437Z,19.10
2018-06-25T19:46:29.510Z,19.00
2018-06-25T19:49:02.651Z,18.80
2018-06-25T19:51:35.739Z,18.60
2018-06-25T19:54:09.572Z,18.50
2018-06-25T19:56:42.668Z,18.40
2018-06-25T19:59:18.996Z,18.30
2018-06-25T20:01:53.181Z,18.30
2018-06-25T20:04:29.089Z,18.30
2018-06-25T20:07:03.135Z,18.30
2018-06-25T20:09:37.307Z,18.30
2018-06-25T20:12:12.485Z,18.40
2018-06-25T20:14:45.569Z,18.40
2018-06-25T20:17:18.566Z,18.50
2018-06-25T20:19:51.653Z,18.50
2018-06-25T20:22:24.786Z,18.50
2018-06-25T20:24:57.782Z,18.50
2018-06-25T20:27:30.874Z,18.50
2018-06-25T20:30:04.976Z,18.50
2018-06-25T20:32:38.126Z,18.40
2018-06-25T20:35:11.914Z,18.30
2018-06-25T20:37:44.902Z,18.20
2018-06-25T20:40:17.958Z,18.10
2018-06-25T20:42:51.025Z,17.90
2018-06-25T20:45:24.336Z,17.90
2018-06-25T20:47:57.361Z,17.80
2018-06-25T20:50:30.451Z,17.70
2018-06-25T20:53:03.533Z,17.60
2018-06-25T20:55:36.633Z,17.50
2018-06-25T21:00:42.528Z,17.50
2018-06-25T21:03:15.591Z,17.50
2018-06-25T21:05:48.617Z,17.50
2018-06-25T21:08:21.662Z,17.50
2018-06-25T21:10:54.739Z,17.50
2018-06-25T21:13:28.197Z,17.40
2018-06-25T21:16:01.285Z,17.40
2018-06-25T21:18:34.334Z,17.40
2018-06-25T21:21:15.998Z,17.40
2018-06-25T21:23:49.449Z,17.40
2018-06-25T21:26:22.758Z,17.40
2018-06-25T21:28:55.794Z,17.40
2018-06-25T21:31:28.821Z,17.50
2018-06-25T21:34:01.834Z,17.50
2018-06-25T21:36:34.898Z,17.50
2018-06-25T21:39:15.828Z,17.50
2018-06-25T21:41:48.910Z,17.50
2018-06-25T21:44:24.935Z,17.50
2018-06-25T21:46:57.975Z,17.40
2018-06-25T21:49:31.014Z,17.40
2018-06-25T21:52:04.019Z,17.40
2018-06-25T21:54:37.097Z,17.40
2018-06-25T21:57:11.718Z,17.40
2018-06-25T21:59:44.705Z,17.40
2018-06-25T22:04:51.274Z,17.50
2018-06-25T22:07:24.288Z,17.50
2018-06-25T22:09:59.206Z,17.50
2018-06-25T22:12:32.243Z,17.50
2018-06-25T22:15:09.565Z,17.50
2018-06-25T22:17:47.640Z,17.50
2018-06-25T22:20:20.917Z,17.50
2018-06-25T22:22:54.063Z,17.50
2018-06-25T22:25:30.175Z,17.40
2018-06-25T22:28:03.238Z,17.40
2018-06-25T22:30:36.714Z,17.30
2018-06-25T22:33:09.845Z,17.20
2018-06-25T22:38:15.698Z,17.10
2018-06-25T22:40:48.707Z,17.10
2018-06-25T22:43:21.763Z,17.00
2018-06-25T22:45:54.778Z,16.90
2018-06-25T22:48:29.453Z,16.90
2018-06-25T22:51:02.610Z,16.80
2018-06-25T22:53:35.629Z,16.70
2018-06-25T22:56:08.646Z,16.60
2018-06-25T22:58:41.703Z,16.50
2018-06-25T23:01:14.766Z,16.60
2018-06-25T23:03:47.972Z,16.60
2018-06-25T23:06:20.973Z,16.50
2018-06-25T23:11:26.876Z,16.60
2018-06-25T23:13:59.937Z,16.60
2018-06-25T23:16:33.037Z,16.60
2018-06-25T23:19:09.291Z,16.60
2018-06-25T23:21:42.287Z,16.60
2018-06-25T23:24:15.321Z,16.60
2018-06-25T23:26:48.310Z,16.60
2018-06-25T23:29:21.342Z,16.60
2018-06-25T23:31:54.390Z,16.50
2018-06-25T23:34:28.480Z,16.50
2018-06-25T23:37:01.463Z,16.50
2018-06-25T23:39:34.512Z,16.40
2018-06-25T23:42:07.502Z,16.40
2018-06-25T23:44:41.347Z,16.30
2018-06-25T23:47:14.427Z,16.30
2018-06-25T23:49:47.442Z,16.30
2018-06-25T23:52:20.439Z,16.30
2018-06-25T23:54:53.438Z,16.30
2018-06-25T23:57:26.448Z,16.30
2018-06-25T23:59:59.486Z,16.30
